createdAt,value
2018-12-25T00:02:02.845Z,103710.63
2018-12-25T00:04:46.335Z,103702.40
2018-12-25T00:07:34.518Z,103693.68
2018-12-25T00:10:15.187Z,103640.98
2018-12-25T00:15:57.593Z,103689.31
2018-12-25T00:18:45.557Z,103689.31
2018-12-25T00:21:26.747Z,103683.20
2018-12-25T00:24:22.386Z,103652.61
2018-12-25T00:27:03.431Z,103688.81
2018-12-25T00:32:53.781Z,103678.83
2018-12-25T00:35:35.767Z,103692.21
2018-12-25T00:38:45.165Z,103691.81
2018-12-25T00:41:27.415Z,103685.75
2018-12-25T00:44:29.846Z,103656.56
2018-12-25T00:46:58.507Z,103699.64
2018-12-25T00:50:00.224Z,103622.06
2018-12-25T00:52:29.536Z,103694.92
2018-12-25T00:55:17.795Z,103698.39
2018-12-25T00:58:02.608Z,103700.55
2018-12-25T01:00:53.443Z,103709.72
2018-12-25T01:03:34.105Z,103695.34
2018-12-25T01:06:22.273Z,103696.64
2018-12-25T01:09:07.266Z,103707.47
2018-12-25T01:14:50.611Z,103707.86
2018-12-25T01:17:39.381Z,103713.97
2018-12-25T01:20:27.422Z,103710.91
2018-12-25T01:23:08.978Z,103716.13
2018-12-25T01:26:10.506Z,103717.45
2018-12-25T01:28:39.790Z,103703.88
2018-12-25T01:31:27.945Z,103736.08
2018-12-25T01:34:09.206Z,103723.94
2018-12-25T01:36:57.294Z,103721.73
2018-12-25T01:39:38.281Z,103728.19
2018-12-25T01:42:26.289Z,103727.34
2018-12-25T01:45:07.298Z,103733.45
2018-12-25T01:47:55.351Z,103736.53
2018-12-25T01:50:39.537Z,103732.67
2018-12-25T01:53:20.466Z,103716.52
2018-12-25T01:56:08.571Z,103737.91
2018-12-25T01:58:49.741Z,103734.44
2018-12-25T02:01:37.892Z,103742.72
2018-12-25T02:04:18.637Z,103748.39
2018-12-25T02:07:06.607Z,103745.39
2018-12-25T02:09:56.511Z,103743.64
2018-12-25T02:12:40.012Z,103700.03
2018-12-25T02:15:28.183Z,103743.63
2018-12-25T02:18:13.743Z,103743.18
2018-12-25T02:21:01.734Z,103719.75
2018-12-25T02:23:42.575Z,103731.04
2018-12-25T02:26:32.684Z,103726.27
2018-12-25T02:29:16.660Z,103729.28
2018-12-25T02:32:04.778Z,103739.66
2018-12-25T02:34:48.599Z,103724.42
2018-12-25T02:37:36.593Z,103729.22
2018-12-25T02:40:17.262Z,103742.19
2018-12-25T02:43:05.094Z,103733.91
2018-12-25T02:45:46.130Z,103726.48
2018-12-25T02:48:34.252Z,103657.58
2018-12-25T02:51:16.377Z,103733.84
2018-12-25T02:53:57.316Z,103730.31
2018-12-25T02:59:33.313Z,103731.22
2018-12-25T03:02:21.230Z,103727.73
2018-12-25T03:05:02.143Z,103730.34
2018-12-25T03:07:50.175Z,103725.13
2018-12-25T03:10:30.670Z,103718.21
2018-12-25T03:13:18.541Z,103735.14
2018-12-25T03:15:59.574Z,103659.80
2018-12-25T03:18:40.176Z,103722.56
2018-12-25T03:21:27.959Z,103715.59
2018-12-25T03:24:09.239Z,103726.47
2018-12-25T03:26:57.036Z,103719.96
2018-12-25T03:29:37.927Z,103715.21
2018-12-25T03:32:25.887Z,103723.48
2018-12-25T03:35:06.615Z,103720.87
2018-12-25T03:37:54.410Z,103623.27
2018-12-25T03:40:35.500Z,103718.67
2018-12-25T03:43:23.367Z,103714.22
2018-12-25T03:46:04.513Z,103713.36
2018-12-25T03:48:52.389Z,103718.58
2018-12-25T03:51:33.750Z,103719.36
2018-12-25T03:54:21.808Z,103639.22
2018-12-25T03:57:02.851Z,103715.91
2018-12-25T03:59:50.737Z,103719.41
2018-12-25T04:02:31.625Z,103712.38
2018-12-25T04:05:19.665Z,103703.28
2018-12-25T04:08:00.626Z,103704.55
2018-12-25T04:10:48.759Z,103697.66
2018-12-25T04:13:29.733Z,103689.45
2018-12-25T04:16:17.998Z,103685.16
2018-12-25T04:18:58.912Z,103690.72
2018-12-25T04:21:46.852Z,103695.28
2018-12-25T04:24:28.089Z,103695.84
2018-12-25T04:27:16.708Z,103701.59
2018-12-25T04:29:56.361Z,103688.17
2018-12-25T04:32:38.103Z,103684.92
2018-12-25T04:35:28.802Z,103685.77
2018-12-25T04:38:10.436Z,103671.44
2018-12-25T04:40:59.790Z,103700.20
2018-12-25T04:43:42.656Z,103695.52
2018-12-25T04:46:30.779Z,103701.52
2018-12-25T04:49:11.919Z,103695.81
2018-12-25T04:52:03.363Z,103691.91
2018-12-25T04:54:44.427Z,103702.80
2018-12-25T04:57:25.768Z,103704.00
2018-12-25T05:00:13.733Z,103599.78
2018-12-25T05:02:54.943Z,103709.30
2018-12-25T05:05:43.030Z,103707.15
2018-12-25T05:08:24.435Z,103707.55
2018-12-25T05:11:12.518Z,103710.61
2018-12-25T05:13:53.015Z,103717.47
2018-12-25T05:17:00.562Z,103714.03
2018-12-25T05:19:41.602Z,103717.50
2018-12-25T05:22:29.609Z,103614.62
2018-12-25T05:25:10.835Z,103705.31
2018-12-25T05:27:59.053Z,103710.06
2018-12-25T05:30:39.815Z,103711.43
2018-12-25T05:33:30.189Z,103593.64
2018-12-25T05:36:10.988Z,103714.78
2018-12-25T05:38:59.197Z,103706.88
2018-12-25T05:41:42.356Z,103612.91
2018-12-25T05:44:31.541Z,103703.20
2018-12-25T05:47:13.023Z,103707.10
2018-12-25T05:50:00.863Z,103705.31
2018-12-25T05:52:41.600Z,103693.95
2018-12-25T05:55:30.158Z,103689.59
2018-12-25T05:58:11.258Z,103691.17
2018-12-25T06:00:59.545Z,103691.95
2018-12-25T06:03:40.384Z,103692.31
2018-12-25T06:06:28.355Z,103607.38
2018-12-25T06:09:10.795Z,103708.36
2018-12-25T06:11:59.139Z,103660.06
2018-12-25T06:14:41.090Z,103697.48
2018-12-25T06:17:29.566Z,103708.16
2018-12-25T06:20:11.096Z,103706.81
2018-12-25T06:22:59.013Z,103720.97
2018-12-25T06:25:39.497Z,103723.97
2018-12-25T06:28:21.468Z,103624.42
2018-12-25T06:31:09.391Z,103717.27
2018-12-25T06:33:50.035Z,103726.23
2018-12-25T06:36:31.288Z,103674.30
2018-12-25T06:39:19.288Z,103736.63
2018-12-25T06:42:01.129Z,103724.91
2018-12-25T06:44:49.117Z,103721.66
2018-12-25T06:47:32.398Z,103716.92
2018-12-25T06:50:20.345Z,103719.79
2018-12-25T06:53:01.436Z,103665.62
2018-12-25T07:01:36.600Z,103705.93
2018-12-25T07:04:07.403Z,103712.11
2018-12-25T07:06:36.566Z,103713.20
2018-12-25T07:09:06.753Z,103712.36
2018-12-25T07:11:34.659Z,103714.05
2018-12-25T07:14:02.711Z,103709.70
2018-12-25T07:16:33.031Z,103706.66
2018-12-25T07:19:01.183Z,103710.61
2018-12-25T07:21:29.148Z,103717.77
2018-12-25T07:23:57.254Z,103714.41
2018-12-25T07:26:25.227Z,103716.93
2018-12-25T07:28:53.227Z,103714.99
2018-12-25T07:31:21.379Z,103717.12
2018-12-25T07:33:49.322Z,103717.00
2018-12-25T07:38:53.272Z,103716.61
2018-12-25T07:41:21.214Z,103718.17
2018-12-25T07:43:49.198Z,103715.45
2018-12-25T07:46:20.039Z,103717.53
2018-12-25T07:48:49.154Z,103720.05
2018-12-25T07:51:20.859Z,103720.58
2018-12-25T07:53:49.063Z,103719.27
2018-12-25T07:56:19.933Z,103717.32
2018-12-25T07:58:50.843Z,103719.17
2018-12-25T08:01:18.823Z,103721.89
2018-12-25T08:03:48.432Z,103717.50
2018-12-25T08:06:16.633Z,103720.47
2018-12-25T08:08:46.230Z,103720.65
2018-12-25T08:11:14.505Z,103724.98
2018-12-25T08:13:42.741Z,103718.58
2018-12-25T08:16:12.947Z,103729.15
2018-12-25T08:18:40.909Z,103727.45
2018-12-25T08:21:08.955Z,103731.49
2018-12-25T08:23:37.121Z,103728.03
2018-12-25T08:26:05.071Z,103725.22
2018-12-25T08:28:33.101Z,103726.67
2018-12-25T08:31:02.949Z,103736.70
2018-12-25T08:33:32.664Z,103733.22
2018-12-25T08:36:00.618Z,103732.52
2018-12-25T08:38:29.149Z,103727.17
2018-12-25T08:40:57.144Z,103726.31
2018-12-25T08:43:25.170Z,103729.97
2018-12-25T08:45:53.077Z,103733.95
2018-12-25T08:48:20.957Z,103735.92
2018-12-25T08:50:48.984Z,103733.42
2018-12-25T08:53:16.930Z,103736.39
2018-12-25T08:55:47.394Z,103737.85
2018-12-25T08:58:15.711Z,103739.02
2018-12-25T09:00:44.542Z,103739.39
2018-12-25T09:03:12.500Z,103736.99
2018-12-25T09:05:40.450Z,103736.39
2018-12-25T09:08:10.421Z,103736.93
2018-12-25T09:10:38.393Z,103741.78
2018-12-25T09:13:09.500Z,103750.30
2018-12-25T09:15:37.690Z,103747.19
2018-12-25T09:18:07.393Z,103752.16
2018-12-25T09:20:35.550Z,103754.05
2018-12-25T09:23:03.430Z,103755.30
2018-12-25T09:25:34.206Z,103749.70
2018-12-25T09:28:02.290Z,103749.29
2018-12-25T09:30:30.188Z,103744.56
2018-12-25T09:32:58.186Z,103744.63
2018-12-25T09:35:26.555Z,103751.16
2018-12-25T09:37:54.617Z,103755.02
2018-12-25T09:40:25.265Z,103750.28
2018-12-25T09:42:53.315Z,103762.11
2018-12-25T09:45:21.264Z,103743.91
2018-12-25T09:47:49.356Z,103740.95
2018-12-25T09:50:17.498Z,103751.13
2018-12-25T09:52:46.978Z,103743.72
2018-12-25T09:55:15.065Z,103750.61
2018-12-25T09:57:44.388Z,103752.81
2018-12-25T10:00:15.067Z,103750.16
2018-12-25T10:02:43.409Z,103744.66
2018-12-25T10:05:11.663Z,103744.67
2018-12-25T10:07:39.638Z,103750.93
2018-12-25T10:10:07.866Z,103741.32
2018-12-25T10:12:35.924Z,103747.45
2018-12-25T10:15:04.232Z,103746.03
2018-12-25T10:17:32.272Z,103747.92
2018-12-25T10:20:04.860Z,103744.28
2018-12-25T10:22:32.750Z,103745.67
2018-12-25T10:25:00.991Z,103744.75
2018-12-25T10:27:28.876Z,103736.17
2018-12-25T10:29:56.926Z,103729.31
2018-12-25T10:32:24.770Z,103727.65
2018-12-25T10:35:07.997Z,103725.97
2018-12-25T10:37:35.877Z,103722.91
2018-12-25T10:40:03.873Z,103719.12
2018-12-25T10:42:32.041Z,103722.96
2018-12-25T10:45:00.161Z,103724.27
2018-12-25T10:47:28.237Z,103720.30
2018-12-25T10:49:56.108Z,103733.77
2018-12-25T10:52:23.942Z,103730.77
2018-12-25T10:54:52.073Z,103730.91
2018-12-25T10:57:19.915Z,103726.47
2018-12-25T10:59:47.906Z,103721.72
2018-12-25T11:02:15.982Z,103714.84
2018-12-25T11:04:43.851Z,103711.08
2018-12-25T11:07:11.913Z,103707.17
2018-12-25T11:09:39.750Z,103701.14
2018-12-25T11:12:07.581Z,103700.59
2018-12-25T11:14:35.555Z,103698.78
2018-12-25T11:17:10.430Z,103686.21
2018-12-25T11:19:36.604Z,103693.05
2018-12-25T11:22:04.654Z,103681.67
2018-12-25T11:24:32.521Z,103681.12
2018-12-25T11:27:00.643Z,103676.67
2018-12-25T11:29:28.707Z,103672.53
2018-12-25T11:31:56.639Z,103668.99
2018-12-25T11:34:24.611Z,103671.09
2018-12-25T11:36:52.689Z,103666.41
2018-12-25T11:39:20.572Z,103663.36
2018-12-25T11:41:48.437Z,103656.44
2018-12-25T11:44:16.449Z,103661.33
2018-12-25T11:46:44.339Z,103656.91
2018-12-25T11:49:12.335Z,103662.05
2018-12-25T11:51:40.452Z,103654.77
2018-12-25T11:54:08.417Z,103656.97
2018-12-25T11:56:36.393Z,103661.78
2018-12-25T11:59:04.411Z,103663.48
2018-12-25T12:01:32.289Z,103663.64
2018-12-25T12:04:00.292Z,103661.03
2018-12-25T12:06:28.189Z,103664.16
2018-12-25T12:08:56.082Z,103659.42
2018-12-25T12:11:24.076Z,103655.50
2018-12-25T12:13:52.093Z,103658.47
2018-12-25T12:16:19.941Z,103662.38
2018-12-25T12:18:47.791Z,103675.38
2018-12-25T12:21:15.804Z,103664.45
2018-12-25T12:23:43.676Z,103669.27
2018-12-25T12:26:12.828Z,103672.67
2018-12-25T12:28:40.849Z,103668.74
2018-12-25T12:31:09.166Z,103673.45
2018-12-25T12:33:37.317Z,103672.09
2018-12-25T12:36:05.226Z,103676.83
2018-12-25T12:38:33.269Z,103675.92
2018-12-25T12:41:01.613Z,103681.58
2018-12-25T12:43:29.674Z,103681.13
2018-12-25T12:45:57.699Z,103680.66
2018-12-25T12:48:25.572Z,103678.80
2018-12-25T12:50:54.915Z,103678.03
2018-12-25T12:53:23.593Z,103675.38
2018-12-25T12:55:51.795Z,103675.08
2018-12-25T12:58:19.847Z,103679.83
2018-12-25T13:00:49.732Z,103676.44
2018-12-25T13:03:18.009Z,103686.33
2018-12-25T13:05:48.025Z,103681.52
2018-12-25T13:08:17.888Z,103683.73
2018-12-25T13:10:46.965Z,103684.64
2018-12-25T13:13:14.938Z,103679.17
2018-12-25T13:15:43.215Z,103680.02
2018-12-25T13:18:11.062Z,103673.17
2018-12-25T13:20:39.008Z,103676.67
2018-12-25T13:23:06.858Z,103687.06
2018-12-25T13:25:34.777Z,103682.28
2018-12-25T13:28:02.752Z,103679.69
2018-12-25T13:30:30.637Z,103688.77
2018-12-25T13:32:58.464Z,103674.43
2018-12-25T13:35:26.460Z,103670.56
2018-12-25T13:37:54.312Z,103665.84
2018-12-25T13:40:22.436Z,103665.92
2018-12-25T13:42:50.516Z,103661.97
2018-12-25T13:45:18.375Z,103661.55
2018-12-25T13:47:46.358Z,103665.50
2018-12-25T13:50:14.218Z,103665.94
2018-12-25T13:52:42.161Z,103664.25
2018-12-25T13:55:09.997Z,103675.10
2018-12-25T13:57:37.953Z,103668.15
2018-12-25T14:00:05.919Z,103668.11
2018-12-25T14:02:33.820Z,103672.07
2018-12-25T14:05:01.779Z,103672.08
2018-12-25T14:07:29.725Z,103672.97
2018-12-25T14:09:57.681Z,103672.11
2018-12-25T14:12:25.535Z,103669.50
2018-12-25T14:14:53.548Z,103665.14
2018-12-25T14:17:21.608Z,103667.34
2018-12-25T14:19:49.476Z,103663.42
2018-12-25T14:22:17.344Z,103663.34
2018-12-25T14:24:49.953Z,103663.77
2018-12-25T14:27:18.046Z,103660.25
2018-12-25T14:29:45.988Z,103659.42
2018-12-25T14:32:13.927Z,103655.95
2018-12-25T14:34:41.939Z,103662.07
2018-12-25T14:37:09.819Z,103656.41
2018-12-25T14:39:37.696Z,103655.95
2018-12-25T14:42:05.671Z,103652.03
2018-12-25T14:44:33.569Z,103654.23
2018-12-25T14:47:01.445Z,103646.41
2018-12-25T14:49:29.937Z,103652.87
2018-12-25T14:51:58.112Z,103647.59
2018-12-25T14:54:26.056Z,103654.59
2018-12-25T14:56:55.090Z,103648.52
2018-12-25T14:59:27.634Z,103652.84
2018-12-25T15:01:55.654Z,103647.20
2018-12-25T15:04:23.504Z,103645.42
2018-12-25T15:06:51.440Z,103641.44
2018-12-25T15:09:22.870Z,103639.69
2018-12-25T15:11:50.737Z,103642.67
2018-12-25T15:14:18.929Z,103637.02
2018-12-25T15:16:46.768Z,103646.59
2018-12-25T15:19:16.259Z,103644.78
2018-12-25T15:21:44.234Z,103641.27
2018-12-25T15:24:12.074Z,103647.73
2018-12-25T15:26:41.632Z,103644.72
2018-12-25T15:29:09.765Z,103646.02
2018-12-25T15:31:37.897Z,103645.52
2018-12-25T15:34:05.823Z,103645.94
2018-12-25T15:36:33.834Z,103632.87
2018-12-25T15:39:03.548Z,103638.91
2018-12-25T15:41:31.497Z,103635.38
2018-12-25T15:43:59.708Z,103635.53
2018-12-25T15:46:27.719Z,103636.85
2018-12-25T15:48:55.923Z,103647.71
2018-12-25T15:51:24.081Z,103635.80
2018-12-25T15:53:52.029Z,103640.05
2018-12-25T15:56:25.203Z,103639.58
2018-12-25T15:58:53.321Z,103639.00
2018-12-25T16:01:21.404Z,103637.03
2018-12-25T16:03:51.464Z,103640.11
2018-12-25T16:06:19.532Z,103636.53
2018-12-25T16:08:47.645Z,103640.27
2018-12-25T16:11:20.586Z,103642.38
2018-12-25T16:13:48.762Z,103638.92
2018-12-25T16:16:16.651Z,103635.25
2018-12-25T16:18:44.484Z,103632.56
2018-12-25T16:21:12.483Z,103635.14
2018-12-25T16:23:45.269Z,103642.91
2018-12-25T16:26:10.431Z,103643.27
2018-12-25T16:28:38.580Z,103640.50
2018-12-25T16:31:06.568Z,103643.53
2018-12-25T16:33:40.772Z,103637.94
2018-12-25T16:36:12.637Z,103648.41
2018-12-25T16:38:40.787Z,103642.30
2018-12-25T16:41:08.857Z,103639.20
2018-12-25T16:43:36.728Z,103649.44
2018-12-25T16:46:04.824Z,103650.94
2018-12-25T16:48:32.898Z,103657.36
2018-12-25T16:51:01.105Z,103661.27
2018-12-25T16:53:29.069Z,103659.93
2018-12-25T16:55:57.141Z,103659.38
2018-12-25T16:58:25.023Z,103659.03
2018-12-25T17:00:56.357Z,103658.39
2018-12-25T17:03:24.339Z,103671.09
2018-12-25T17:05:52.247Z,103660.22
2018-12-25T17:08:20.330Z,103665.89
2018-12-25T17:10:48.371Z,103665.48
2018-12-25T17:13:16.510Z,103660.50
2018-12-25T17:15:44.525Z,103662.66
2018-12-25T17:18:12.438Z,103662.23
2018-12-25T17:20:40.414Z,103663.02
2018-12-25T17:23:08.298Z,103662.61
2018-12-25T17:25:36.184Z,103662.39
2018-12-25T17:28:04.251Z,103666.69
2018-12-25T17:30:32.079Z,103668.36
2018-12-25T17:32:59.919Z,103666.22
2018-12-25T17:35:27.915Z,103671.89
2018-12-25T17:37:55.824Z,103674.77
2018-12-25T17:40:23.671Z,103666.02
2018-12-25T17:42:52.826Z,103675.03
2018-12-25T17:45:21.075Z,103663.70
2018-12-25T17:47:49.085Z,103666.22
2018-12-25T17:50:16.917Z,103662.68
2018-12-25T17:52:44.915Z,103659.12
2018-12-25T17:55:12.930Z,103654.23
2018-12-25T17:57:40.899Z,103656.69
2018-12-25T18:00:08.745Z,103666.50
2018-12-25T18:02:36.603Z,103659.38
2018-12-25T18:05:11.727Z,103661.84
2018-12-25T18:07:34.376Z,103667.22
2018-12-25T18:10:02.193Z,103660.29
2018-12-25T18:12:30.137Z,103656.75
2018-12-25T18:14:57.967Z,103658.38
2018-12-25T18:17:25.805Z,103657.00
2018-12-25T18:19:53.863Z,103651.55
2018-12-25T18:22:21.840Z,103652.69
2018-12-25T18:24:49.687Z,103656.81
2018-12-25T18:27:17.504Z,103658.14
2018-12-25T18:29:45.468Z,103667.59
2018-12-25T18:32:13.387Z,103665.80
2018-12-25T18:34:42.244Z,103672.08
2018-12-25T18:37:10.154Z,103668.36
2018-12-25T18:39:38.188Z,103675.03
2018-12-25T18:42:06.100Z,103678.45
2018-12-25T18:44:33.967Z,103679.63
2018-12-25T18:47:01.871Z,103678.88
2018-12-25T18:49:29.831Z,103682.29
2018-12-25T18:51:57.645Z,103679.23
2018-12-25T18:54:27.966Z,103685.61
2018-12-25T18:56:55.382Z,103685.46
2018-12-25T18:59:23.244Z,103685.29
2018-12-25T19:01:51.176Z,103685.25
2018-12-25T19:04:19.021Z,103687.02
2018-12-25T19:06:46.988Z,103686.42
2018-12-25T19:09:14.824Z,103691.86
2018-12-25T19:11:42.674Z,103691.95
2018-12-25T19:14:10.690Z,103696.11
2018-12-25T19:16:38.564Z,103697.87
2018-12-25T19:19:06.585Z,103693.73
2018-12-25T19:21:35.687Z,103696.44
2018-12-25T19:24:04.076Z,103704.94
2018-12-25T19:26:31.993Z,103698.34
2018-12-25T19:28:59.959Z,103695.19
2018-12-25T19:31:28.051Z,103692.30
2018-12-25T19:33:55.904Z,103695.58
2018-12-25T19:36:23.844Z,103697.41
2018-12-25T19:38:52.010Z,103702.97
2018-12-25T19:41:20.448Z,103699.98
2018-12-25T19:43:48.578Z,103698.64
2018-12-25T19:46:16.560Z,103694.64
2018-12-25T19:48:44.488Z,103699.12
2018-12-25T19:51:12.908Z,103698.11
2018-12-25T19:53:40.902Z,103690.75
2018-12-25T19:56:08.856Z,103693.40
2018-12-25T19:58:36.747Z,103688.98
2018-12-25T20:01:04.721Z,103686.83
2018-12-25T20:03:54.989Z,103687.42
2018-12-25T20:07:29.561Z,103671.81
2018-12-25T20:11:12.310Z,103677.84
2018-12-25T20:14:47.823Z,103668.24
2018-12-25T20:18:13.079Z,103660.14
2018-12-25T20:21:53.316Z,103661.18
2018-12-25T20:24:52.968Z,103660.86
2018-12-25T20:28:30.723Z,103665.52
2018-12-25T20:32:14.356Z,103665.27
2018-12-25T20:35:57.381Z,103671.69
2018-12-25T20:43:21.564Z,103665.44
2018-12-25T20:46:59.785Z,103671.31
2018-12-25T20:50:16.182Z,103665.44
2018-12-25T20:53:31.534Z,103664.58
2018-12-25T20:57:28.131Z,103658.23
2018-12-25T21:01:00.315Z,103648.26
2018-12-25T21:04:41.590Z,103649.44
2018-12-25T21:08:30.711Z,103649.14
2018-12-25T21:12:10.259Z,103641.36
2018-12-25T21:15:26.670Z,103636.40
2018-12-25T21:19:08.768Z,103637.11
2018-12-25T21:23:00.790Z,103630.53
2018-12-25T21:26:23.672Z,103634.55
2018-12-25T21:28:51.656Z,103624.28
2018-12-25T21:31:21.596Z,103625.94
2018-12-25T21:33:50.098Z,103625.92
2018-12-25T21:36:18.024Z,103627.55
2018-12-25T21:38:46.054Z,103624.07
2018-12-25T21:41:15.349Z,103619.70
2018-12-25T21:43:44.455Z,103632.63
2018-12-25T21:46:12.560Z,103630.06
2018-12-25T21:48:40.977Z,103624.95
2018-12-25T21:51:09.356Z,103614.27
2018-12-25T21:53:38.338Z,103620.23
2018-12-25T21:56:06.479Z,103619.17
2018-12-25T21:58:36.116Z,103556.19
2018-12-25T22:01:04.175Z,103622.66
2018-12-25T22:03:32.290Z,103622.13
2018-12-25T22:06:00.234Z,103622.92
2018-12-25T22:08:28.468Z,103617.52
2018-12-25T22:10:57.830Z,103610.99
2018-12-25T22:13:25.873Z,103611.95
2018-12-25T22:15:53.934Z,103614.27
2018-12-25T22:18:21.901Z,103606.39
2018-12-25T22:20:49.794Z,103610.77
2018-12-25T22:23:17.809Z,103610.69
2018-12-25T22:25:46.192Z,103602.30
2018-12-25T22:28:15.493Z,103604.39
2018-12-25T22:30:45.662Z,103606.28
2018-12-25T22:33:16.202Z,103594.32
2018-12-25T22:35:46.229Z,103590.14
2018-12-25T22:38:15.675Z,103590.91
2018-12-25T22:40:43.696Z,103584.75
2018-12-25T22:43:11.777Z,103590.14
2018-12-25T22:45:39.689Z,103591.57
2018-12-25T22:48:10.020Z,103594.16
2018-12-25T22:50:38.293Z,103592.17
2018-12-25T22:53:06.358Z,103598.20
2018-12-25T22:55:35.972Z,103596.44
2018-12-25T22:58:04.284Z,103597.64
2018-12-25T23:00:32.347Z,103601.31
2018-12-25T23:03:00.341Z,103597.77
2018-12-25T23:05:28.497Z,103603.13
2018-12-25T23:07:56.566Z,103601.59
2018-12-25T23:10:28.757Z,103598.09
2018-12-25T23:12:54.447Z,103602.95
2018-12-25T23:15:22.432Z,103591.96
2018-12-25T23:17:50.452Z,103586.55
2018-12-25T23:20:18.328Z,103589.53
2018-12-25T23:22:46.400Z,103581.70
2018-12-25T23:25:14.297Z,103581.73
2018-12-25T23:27:42.239Z,103577.75
2018-12-25T23:30:10.368Z,103584.02
2018-12-25T23:32:42.014Z,103573.91
2018-12-25T23:35:10.002Z,103578.38
2018-12-25T23:37:38.094Z,103569.73
2018-12-25T23:40:09.153Z,103574.47
2018-12-25T23:42:42.595Z,103574.11
2018-12-25T23:45:13.089Z,103566.90
2018-12-25T23:47:41.077Z,103570.10
2018-12-25T23:50:09.346Z,103573.02
2018-12-25T23:52:40.053Z,103568.15
2018-12-25T23:55:08.856Z,103559.16
2018-12-25T23:57:36.854Z,103559.16
